createdAt,value
2019-03-01T00:00:18.075Z,20.30
2019-03-01T00:02:48.677Z,16.53
2019-03-01T00:06:12.609Z,16.13
2019-03-01T00:09:54.991Z,16.20
2019-03-01T00:13:22.567Z,18.83
2019-03-01T00:16:56.474Z,19.47
2019-03-01T00:20:35.887Z,18.80
2019-03-01T00:23:42.089Z,20.40
2019-03-01T00:27:08.137Z,18.90
2019-03-01T00:30:21.840Z,23.10
2019-03-01T00:33:25.670Z,19.10
2019-03-01T00:36:50.478Z,22.37
2019-03-01T00:40:06.528Z,21.80
2019-03-01T00:43:20.163Z,18.50
2019-03-01T00:45:50.721Z,22.10
2019-03-01T00:48:21.243Z,23.87
2019-03-01T00:50:51.783Z,25.07
2019-03-01T00:53:22.397Z,25.70
2019-03-01T00:55:52.947Z,25.40
2019-03-01T00:58:23.553Z,27.83
2019-03-01T01:00:54.045Z,26.20
2019-03-01T01:03:24.656Z,22.97
2019-03-01T01:05:55.262Z,30.03
2019-03-01T01:08:25.845Z,24.60
2019-03-01T01:10:56.358Z,25.63
2019-03-01T01:13:26.852Z,28.53
2019-03-01T01:15:57.486Z,25.53
2019-03-01T01:18:28.006Z,27.90
2019-03-01T01:20:58.598Z,23.40
2019-03-01T01:23:29.174Z,23.83
2019-03-01T01:25:59.629Z,27.03
2019-03-01T01:28:30.122Z,26.33
2019-03-01T01:31:00.637Z,23.87
2019-03-01T01:33:31.123Z,26.10
2019-03-01T01:36:01.665Z,28.00
2019-03-01T01:38:32.157Z,29.90
2019-03-01T01:41:02.709Z,22.60
2019-03-01T01:43:33.212Z,27.83
2019-03-01T01:46:03.671Z,23.17
2019-03-01T01:48:34.228Z,22.73
2019-03-01T01:51:04.707Z,20.53
2019-03-01T01:53:35.384Z,22.10
2019-03-01T01:56:06.039Z,21.27
2019-03-01T01:58:36.505Z,20.53
2019-03-01T02:01:07.210Z,22.57
2019-03-01T02:03:37.793Z,23.20
2019-03-01T02:06:08.304Z,19.00
2019-03-01T02:08:38.880Z,19.43
2019-03-01T02:11:09.413Z,21.10
2019-03-01T02:13:40.000Z,20.13
2019-03-01T02:16:10.536Z,25.00
2019-03-01T02:18:41.122Z,20.73
2019-03-01T02:21:11.833Z,24.17
2019-03-01T02:23:42.323Z,24.80
2019-03-01T02:26:12.797Z,26.00
2019-03-01T02:28:43.373Z,26.63
2019-03-01T02:31:14.413Z,28.17
2019-03-01T02:33:44.940Z,26.50
2019-03-01T02:36:15.546Z,26.30
2019-03-01T02:38:46.246Z,24.87
2019-03-01T02:41:16.725Z,29.33
2019-03-01T02:43:47.217Z,27.60
2019-03-01T02:46:17.750Z,30.90
2019-03-01T02:48:48.328Z,27.87
2019-03-01T02:51:18.812Z,28.97
2019-03-01T02:53:49.350Z,27.67
2019-03-01T02:56:20.115Z,27.87
2019-03-01T02:58:50.688Z,32.13
2019-03-01T03:01:21.242Z,31.57
2019-03-01T03:03:51.871Z,29.57
2019-03-01T03:06:44.348Z,30.77
2019-03-01T03:09:14.921Z,30.47
2019-03-01T03:11:45.411Z,27.77
2019-03-01T03:14:15.942Z,28.23
2019-03-01T03:16:46.448Z,29.90
2019-03-01T03:19:16.966Z,28.17
2019-03-01T03:21:47.539Z,25.57
2019-03-01T03:24:18.100Z,36.40
2019-03-01T03:26:48.784Z,30.90
2019-03-01T03:29:19.302Z,28.07
2019-03-01T03:31:49.954Z,35.80
2019-03-01T03:34:20.467Z,28.73
2019-03-01T03:36:51.136Z,28.80
2019-03-01T03:39:21.646Z,33.70
2019-03-01T03:41:52.201Z,36.80
2019-03-01T03:44:22.724Z,26.57
2019-03-01T03:46:53.292Z,30.23
2019-03-01T03:49:23.852Z,33.17
2019-03-01T03:51:54.317Z,29.17
2019-03-01T03:54:24.953Z,29.70
2019-03-01T03:56:55.428Z,27.30
2019-03-01T03:59:25.984Z,28.60
2019-03-01T04:01:56.564Z,31.47
2019-03-01T04:04:27.054Z,31.63
2019-03-01T04:06:57.535Z,26.67
2019-03-01T04:09:28.167Z,28.87
2019-03-01T04:11:58.737Z,29.17
2019-03-01T04:14:29.212Z,24.80
2019-03-01T04:16:59.723Z,25.67
2019-03-01T04:19:30.259Z,24.43
2019-03-01T04:22:00.757Z,24.77
2019-03-01T04:24:31.257Z,25.13
2019-03-01T04:27:01.807Z,22.03
2019-03-01T04:29:32.325Z,24.17
2019-03-01T04:32:04.073Z,22.73
2019-03-01T04:34:34.630Z,20.00
2019-03-01T04:37:05.150Z,21.07
2019-03-01T04:39:35.616Z,21.67
2019-03-01T04:42:06.247Z,21.10
2019-03-01T04:44:36.755Z,21.13
2019-03-01T04:47:07.260Z,20.53
2019-03-01T04:49:37.881Z,22.00
2019-03-01T04:52:36.966Z,21.47
2019-03-01T04:55:20.128Z,17.47
2019-03-01T04:57:50.701Z,22.80
2019-03-01T05:00:23.200Z,17.63
2019-03-01T05:02:53.809Z,18.13
2019-03-01T05:05:24.327Z,21.37
2019-03-01T05:07:54.947Z,20.50
2019-03-01T05:10:25.452Z,19.33
2019-03-01T05:12:56.115Z,22.43
2019-03-01T05:15:26.915Z,19.03
2019-03-01T05:17:57.429Z,18.93
2019-03-01T05:20:29.542Z,17.40
2019-03-01T05:23:00.157Z,19.63
2019-03-01T05:25:30.872Z,22.13
2019-03-01T05:28:01.494Z,18.63
2019-03-01T05:30:34.856Z,24.23
2019-03-01T05:33:05.325Z,16.67
2019-03-01T05:35:35.938Z,19.10
2019-03-01T05:38:06.466Z,18.73
2019-03-01T05:40:36.950Z,19.73
2019-03-01T05:43:07.555Z,19.60
2019-03-01T05:45:38.061Z,21.13
2019-03-01T05:48:08.516Z,18.33
2019-03-01T05:50:39.147Z,19.47
2019-03-01T05:53:09.667Z,19.17
2019-03-01T05:55:40.220Z,22.73
2019-03-01T05:58:42.004Z,21.77
2019-03-01T06:01:34.866Z,20.50
2019-03-01T06:04:29.967Z,18.90
2019-03-01T06:07:52.660Z,20.90
2019-03-01T06:10:59.749Z,20.87
2019-03-01T06:14:32.566Z,22.27
2019-03-01T06:18:04.044Z,19.70
2019-03-01T06:21:30.965Z,26.67
2019-03-01T06:24:47.256Z,20.73
2019-03-01T06:28:00.450Z,23.93
2019-03-01T06:31:22.901Z,20.27
2019-03-01T06:34:40.995Z,22.80
2019-03-01T06:38:32.504Z,19.90
2019-03-01T06:41:50.072Z,22.07
2019-03-01T06:45:26.118Z,22.02
2019-03-01T06:47:56.640Z,22.57
2019-03-01T06:50:46.244Z,19.60
2019-03-01T06:53:16.751Z,19.57
2019-03-01T06:56:02.295Z,21.47
2019-03-01T06:58:39.611Z,20.60
2019-03-01T07:01:16.501Z,20.83
2019-03-01T07:03:52.023Z,21.47
2019-03-01T07:06:22.610Z,22.60
2019-03-01T07:08:53.210Z,24.20
2019-03-01T07:11:23.852Z,21.53
2019-03-01T07:13:54.440Z,25.93
2019-03-01T07:16:24.972Z,23.00
2019-03-01T07:18:55.709Z,26.07
2019-03-01T07:21:26.382Z,28.23
2019-03-01T07:23:56.998Z,30.67
2019-03-01T07:26:27.531Z,31.50
2019-03-01T07:28:58.064Z,30.83
2019-03-01T07:31:28.638Z,33.90
2019-03-01T07:33:59.258Z,36.43
2019-03-01T07:36:29.732Z,33.20
2019-03-01T07:39:00.271Z,33.73
2019-03-01T07:41:30.875Z,37.20
2019-03-01T07:44:01.814Z,37.53
2019-03-01T07:46:32.389Z,37.70
2019-03-01T07:49:02.926Z,41.30
2019-03-01T07:51:35.799Z,46.87
2019-03-01T07:54:05.752Z,39.73
2019-03-01T07:56:37.001Z,45.80
2019-03-01T07:59:08.579Z,45.13
2019-03-01T08:01:39.197Z,44.07
2019-03-01T08:04:09.750Z,44.87
2019-03-01T08:06:40.368Z,47.83
2019-03-01T08:09:13.976Z,45.17
2019-03-01T08:11:44.528Z,48.87
2019-03-01T08:14:15.000Z,52.20
2019-03-01T08:16:45.508Z,53.73
2019-03-01T08:19:22.308Z,49.83
2019-03-01T08:21:49.872Z,54.63
2019-03-01T08:24:20.438Z,57.75
2019-03-01T08:26:51.084Z,56.40
2019-03-01T08:29:21.635Z,56.87
2019-03-01T08:31:52.722Z,47.73
2019-03-01T08:34:24.438Z,54.83
2019-03-01T08:36:55.015Z,54.23
2019-03-01T08:39:25.747Z,51.27
2019-03-01T08:42:00.168Z,45.73
2019-03-01T08:44:28.710Z,51.27
2019-03-01T08:46:59.243Z,46.47
2019-03-01T08:49:29.831Z,49.80
2019-03-01T08:52:01.497Z,47.57
2019-03-01T08:54:32.843Z,47.37
2019-03-01T08:57:03.404Z,41.43
2019-03-01T08:59:34.054Z,40.07
2019-03-01T09:02:04.601Z,42.83
2019-03-01T09:04:37.970Z,44.40
2019-03-01T09:07:07.471Z,39.60
2019-03-01T09:09:38.023Z,37.90
2019-03-01T09:12:08.575Z,38.57
2019-03-01T09:14:39.127Z,39.00
2019-03-01T09:17:09.618Z,35.40
2019-03-01T09:19:40.205Z,32.20
2019-03-01T09:22:10.673Z,36.10
2019-03-01T09:24:41.222Z,35.10
2019-03-01T09:27:11.798Z,30.83
2019-03-01T09:29:42.371Z,31.97
2019-03-01T09:32:12.833Z,36.43
2019-03-01T09:34:44.140Z,35.67
2019-03-01T09:37:14.732Z,39.87
2019-03-01T09:39:45.288Z,33.23
2019-03-01T09:42:16.359Z,37.50
2019-03-01T09:44:46.945Z,43.33
2019-03-01T09:47:17.487Z,39.57
2019-03-01T09:49:48.017Z,32.07
2019-03-01T09:52:20.393Z,34.43
2019-03-01T09:54:50.757Z,28.33
2019-03-01T09:57:21.281Z,34.90
2019-03-01T09:59:52.045Z,34.27
2019-03-01T10:02:22.603Z,34.97
2019-03-01T10:04:53.237Z,34.33
2019-03-01T10:07:23.802Z,39.50
2019-03-01T10:09:54.351Z,37.23
2019-03-01T10:12:26.456Z,40.67
2019-03-01T10:14:57.108Z,50.57
2019-03-01T10:17:27.666Z,48.00
2019-03-01T10:19:58.142Z,53.63
2019-03-01T10:22:28.623Z,51.10
2019-03-01T10:24:59.105Z,54.17
2019-03-01T10:27:29.577Z,49.53
2019-03-01T10:30:00.258Z,57.03
2019-03-01T10:32:30.819Z,49.30
2019-03-01T10:35:01.326Z,48.53
2019-03-01T10:37:31.874Z,52.53
2019-03-01T10:40:02.370Z,48.27
2019-03-01T10:42:33.201Z,48.23
2019-03-01T10:45:03.743Z,52.50
2019-03-01T10:47:34.252Z,45.87
2019-03-01T10:50:05.225Z,36.73
2019-03-01T10:52:35.740Z,40.90
2019-03-01T10:55:07.704Z,37.70
2019-03-01T10:57:38.264Z,39.23
2019-03-01T11:00:20.742Z,40.53
2019-03-01T11:02:51.384Z,35.23
2019-03-01T11:05:22.010Z,32.03
2019-03-01T11:07:53.058Z,36.10
2019-03-01T11:10:27.506Z,28.20
2019-03-01T11:12:58.002Z,24.40
2019-03-01T11:15:28.606Z,25.83
2019-03-01T11:17:59.087Z,27.30
2019-03-01T11:20:29.548Z,27.48
2019-03-01T11:23:00.045Z,26.80
2019-03-01T11:25:30.491Z,23.40
2019-03-01T11:28:01.004Z,23.50
2019-03-01T11:30:32.078Z,21.90
2019-03-01T11:33:02.533Z,24.57
2019-03-01T11:35:33.070Z,15.73
2019-03-01T11:38:03.625Z,20.30
2019-03-01T11:40:34.593Z,26.33
2019-03-01T11:43:05.533Z,22.80
2019-03-01T11:45:36.319Z,27.77
2019-03-01T11:48:07.127Z,24.30
2019-03-01T11:50:37.573Z,23.97
2019-03-01T11:53:08.023Z,14.90
2019-03-01T11:55:38.566Z,16.23
2019-03-01T11:58:09.014Z,21.03
2019-03-01T12:00:39.464Z,18.07
2019-03-01T12:03:09.971Z,18.60
2019-03-01T12:05:40.534Z,19.47
2019-03-01T12:08:11.037Z,19.00
2019-03-01T12:10:41.536Z,24.13
2019-03-01T12:13:12.014Z,18.33
2019-03-01T12:15:42.460Z,20.80
2019-03-01T12:18:12.923Z,24.17
2019-03-01T12:20:43.434Z,26.67
2019-03-01T12:23:13.865Z,21.97
2019-03-01T12:25:44.350Z,25.73
2019-03-01T12:28:14.824Z,26.03
2019-03-01T12:30:45.334Z,18.07
2019-03-01T12:33:15.803Z,20.17
2019-03-01T12:35:46.254Z,25.50
2019-03-01T12:38:16.860Z,24.47
2019-03-01T12:40:47.298Z,21.80
2019-03-01T12:43:17.754Z,22.93
2019-03-01T12:45:48.262Z,24.30
2019-03-01T12:48:18.745Z,20.60
2019-03-01T12:50:49.196Z,22.00
2019-03-01T12:53:19.708Z,20.20
2019-03-01T12:55:50.141Z,17.30
2019-03-01T12:58:20.612Z,19.60
2019-03-01T13:00:51.111Z,12.97
2019-03-01T13:03:21.595Z,12.80
2019-03-01T13:05:52.300Z,14.90
2019-03-01T13:08:22.742Z,16.73
2019-03-01T13:10:53.246Z,21.97
2019-03-01T13:13:23.835Z,13.97
2019-03-01T13:15:54.270Z,20.97
2019-03-01T13:18:24.911Z,17.37
2019-03-01T13:20:55.497Z,19.03
2019-03-01T13:23:25.928Z,20.03
2019-03-01T13:25:56.466Z,20.50
2019-03-01T13:28:26.935Z,25.20
2019-03-01T13:30:57.542Z,22.93
2019-03-01T13:33:28.043Z,25.57
2019-03-01T13:35:59.925Z,19.70
2019-03-01T13:38:34.044Z,16.47
2019-03-01T13:41:03.051Z,17.00
2019-03-01T13:43:33.480Z,16.27
2019-03-01T13:46:03.959Z,14.33
2019-03-01T13:48:34.436Z,14.03
2019-03-01T13:51:04.929Z,13.83
2019-03-01T13:53:35.356Z,12.27
2019-03-01T13:56:05.825Z,12.70
2019-03-01T13:58:36.275Z,17.83
2019-03-01T14:01:07.550Z,16.50
2019-03-01T14:03:38.018Z,14.27
2019-03-01T14:06:08.479Z,19.20
2019-03-01T14:08:38.910Z,16.03
2019-03-01T14:11:09.414Z,19.93
2019-03-01T14:13:39.867Z,14.23
2019-03-01T14:16:10.331Z,17.37
2019-03-01T14:18:40.783Z,15.40
2019-03-01T14:21:11.257Z,17.27
2019-03-01T14:23:41.746Z,14.60
2019-03-01T14:26:15.208Z,18.63
2019-03-01T14:28:44.415Z,17.83
2019-03-01T14:31:14.869Z,19.07
2019-03-01T14:33:45.312Z,17.77
2019-03-01T14:36:15.783Z,18.07
2019-03-01T14:38:46.249Z,15.97
2019-03-01T14:41:16.746Z,17.03
2019-03-01T14:43:47.968Z,19.55
2019-03-01T14:46:20.896Z,18.00
2019-03-01T14:48:50.703Z,16.93
2019-03-01T14:51:21.162Z,15.17
2019-03-01T14:53:51.639Z,23.07
2019-03-01T14:56:34.702Z,15.33
2019-03-01T14:59:35.142Z,22.17
2019-03-01T15:03:23.982Z,16.60
2019-03-01T15:05:54.440Z,16.37
2019-03-01T15:08:24.954Z,20.67
2019-03-01T15:10:55.632Z,12.13
2019-03-01T15:13:27.875Z,12.13
2019-03-01T15:16:01.110Z,16.67
2019-03-01T15:18:32.386Z,14.70
2019-03-01T15:21:03.042Z,16.93
2019-03-01T15:23:33.857Z,14.57
2019-03-01T15:26:04.666Z,14.07
2019-03-01T15:28:44.753Z,12.67
2019-03-01T15:31:15.219Z,13.03
2019-03-01T15:33:47.059Z,10.55
2019-03-01T15:36:19.177Z,13.67
2019-03-01T15:38:49.903Z,7.00
2019-03-01T15:41:20.525Z,7.97
2019-03-01T15:43:51.016Z,8.70
2019-03-01T15:46:21.511Z,13.17
2019-03-01T15:48:52.081Z,12.13
2019-03-01T15:51:22.556Z,6.83
2019-03-01T15:53:53.064Z,10.03
2019-03-01T15:56:25.743Z,9.37
2019-03-01T15:58:56.431Z,10.08
2019-03-01T16:01:26.908Z,10.13
2019-03-01T16:03:58.041Z,10.37
2019-03-01T16:06:28.605Z,10.63
2019-03-01T16:08:59.062Z,7.60
2019-03-01T16:11:31.012Z,5.50
2019-03-01T16:14:01.625Z,5.70
2019-03-01T16:16:32.081Z,7.87
2019-03-01T16:19:03.698Z,8.80
2019-03-01T16:21:34.133Z,8.80
2019-03-01T16:24:05.061Z,7.03
2019-03-01T16:26:37.333Z,7.17
2019-03-01T16:29:08.102Z,4.03
2019-03-01T16:31:38.605Z,5.30
2019-03-01T16:34:09.117Z,4.90
2019-03-01T16:36:45.883Z,8.13
2019-03-01T16:39:16.584Z,5.73
2019-03-01T16:41:47.076Z,7.53
2019-03-01T16:44:17.591Z,11.13
2019-03-01T16:46:48.056Z,6.97
2019-03-01T16:49:18.502Z,4.97
2019-03-01T16:51:50.700Z,10.63
2019-03-01T16:54:21.263Z,4.37
2019-03-01T16:56:51.873Z,9.80
2019-03-01T16:59:22.420Z,5.10
2019-03-01T17:01:53.071Z,5.70
2019-03-01T17:04:27.451Z,6.60
2019-03-01T17:06:58.258Z,10.03
2019-03-01T17:09:28.796Z,5.87
2019-03-01T17:11:59.258Z,4.93
2019-03-01T17:14:29.832Z,10.47
2019-03-01T17:17:00.734Z,6.40
2019-03-01T17:19:31.244Z,3.93
2019-03-01T17:22:04.465Z,6.03
2019-03-01T17:24:34.969Z,7.20
2019-03-01T17:27:06.636Z,4.83
2019-03-01T17:29:39.248Z,8.30
2019-03-01T17:32:09.477Z,9.40
2019-03-01T17:34:39.938Z,6.63
2019-03-01T17:37:10.507Z,6.53
2019-03-01T17:39:41.012Z,3.20
2019-03-01T17:42:11.601Z,6.07
2019-03-01T17:44:44.550Z,7.57
2019-03-01T17:47:16.077Z,10.13
2019-03-01T17:49:46.772Z,4.07
2019-03-01T17:52:17.307Z,10.47
2019-03-01T17:54:47.814Z,7.93
2019-03-01T17:57:20.071Z,3.90
2019-03-01T17:59:50.596Z,4.93
2019-03-01T18:02:21.103Z,7.67
2019-03-01T18:04:51.735Z,4.43
2019-03-01T18:07:23.711Z,6.30
2019-03-01T18:09:56.623Z,4.80
2019-03-01T18:12:27.235Z,5.80
2019-03-01T18:14:57.893Z,7.17
2019-03-01T18:17:28.428Z,3.37
2019-03-01T18:20:01.558Z,7.60
2019-03-01T18:22:31.092Z,6.73
2019-03-01T18:25:01.601Z,4.97
2019-03-01T18:27:32.162Z,4.17
2019-03-01T18:30:03.895Z,3.27
2019-03-01T18:32:34.384Z,7.30
2019-03-01T18:35:08.020Z,8.73
2019-03-01T18:37:38.687Z,5.17
2019-03-01T18:40:13.469Z,3.70
2019-03-01T18:42:42.497Z,4.80
2019-03-01T18:45:15.770Z,4.17
2019-03-01T18:47:46.257Z,4.63
2019-03-01T18:50:20.972Z,4.13
2019-03-01T18:52:53.171Z,3.90
2019-03-01T18:55:24.850Z,5.30
2019-03-01T18:57:56.435Z,4.83
2019-03-01T19:00:35.782Z,3.87
2019-03-01T19:03:05.761Z,4.47
2019-03-01T19:05:40.326Z,7.83
2019-03-01T19:08:09.087Z,3.17
2019-03-01T19:10:39.708Z,4.22
2019-03-01T19:13:10.155Z,4.93
2019-03-01T19:15:40.729Z,5.87
2019-03-01T19:18:13.581Z,6.90
2019-03-01T19:20:43.374Z,4.40
2019-03-01T19:23:13.910Z,5.17
2019-03-01T19:25:44.366Z,5.17
2019-03-01T19:28:14.895Z,2.60
2019-03-01T19:30:45.835Z,5.67
2019-03-01T19:33:17.626Z,8.07
2019-03-01T19:35:48.561Z,6.97
2019-03-01T19:38:21.845Z,5.57
2019-03-01T19:40:51.427Z,2.67
2019-03-01T19:43:22.024Z,2.93
2019-03-01T19:45:52.591Z,1.80
2019-03-01T19:48:23.396Z,4.20
2019-03-01T19:50:53.920Z,4.30
2019-03-01T19:53:25.551Z,3.33
2019-03-01T19:55:58.705Z,2.10
2019-03-01T19:58:29.221Z,5.47
2019-03-01T20:00:59.685Z,2.40
2019-03-01T20:03:30.502Z,4.07
2019-03-01T20:06:01.018Z,4.60
2019-03-01T20:08:31.479Z,5.43
2019-03-01T20:11:01.954Z,3.50
2019-03-01T20:13:32.682Z,4.50
2019-03-01T20:16:03.133Z,3.40
2019-03-01T20:18:34.035Z,3.17
2019-03-01T20:21:05.865Z,2.70
2019-03-01T20:23:37.994Z,5.10
2019-03-01T20:26:08.119Z,6.63
2019-03-01T20:28:38.726Z,4.57
2019-03-01T20:31:09.336Z,3.43
2019-03-01T20:33:39.778Z,3.47
2019-03-01T20:36:10.244Z,2.27
2019-03-01T20:38:40.963Z,3.80
2019-03-01T20:41:12.292Z,6.20
2019-03-01T20:43:43.012Z,2.97
2019-03-01T20:46:13.454Z,3.80
2019-03-01T20:48:43.895Z,4.70
2019-03-01T20:51:14.451Z,3.50
2019-03-01T20:53:45.747Z,3.33
2019-03-01T20:56:17.249Z,7.20
2019-03-01T20:58:50.695Z,3.53
2019-03-01T21:01:21.163Z,3.40
2019-03-01T21:03:51.684Z,2.63
2019-03-01T21:06:22.116Z,2.40
2019-03-01T21:08:52.598Z,3.87
2019-03-01T21:11:25.422Z,3.07
2019-03-01T21:13:56.441Z,2.80
2019-03-01T21:16:26.972Z,3.60
2019-03-01T21:18:59.933Z,4.63
2019-03-01T21:21:30.440Z,2.20
2019-03-01T21:24:00.892Z,2.67
2019-03-01T21:26:31.392Z,3.00
2019-03-01T21:29:01.866Z,3.10
2019-03-01T21:31:35.371Z,3.03
2019-03-01T21:34:04.579Z,4.30
2019-03-01T21:36:35.065Z,4.77
2019-03-01T21:39:06.259Z,3.33
2019-03-01T21:41:36.791Z,1.80
2019-03-01T21:44:10.226Z,2.90
2019-03-01T21:46:39.492Z,3.17
2019-03-01T21:49:09.978Z,3.00
2019-03-01T21:51:40.463Z,2.83
2019-03-01T21:54:12.650Z,3.77
2019-03-01T21:56:55.399Z,3.33
2019-03-01T21:59:17.279Z,3.20
2019-03-01T22:01:47.571Z,6.37
2019-03-01T22:04:18.010Z,4.83
2019-03-01T22:06:48.530Z,7.57
2019-03-01T22:09:20.644Z,4.20
2019-03-01T22:11:51.357Z,7.77
2019-03-01T22:14:21.818Z,5.03
2019-03-01T22:16:52.290Z,2.53
2019-03-01T22:19:22.753Z,4.73
2019-03-01T22:21:54.682Z,3.47
2019-03-01T22:24:27.346Z,7.93
2019-03-01T22:27:00.336Z,3.10
2019-03-01T22:29:30.779Z,3.27
2019-03-01T22:32:01.263Z,6.40
2019-03-01T22:34:32.151Z,6.40
2019-03-01T22:37:02.644Z,4.30
2019-03-01T22:39:33.094Z,3.83
2019-03-01T22:42:03.696Z,3.67
2019-03-01T22:44:36.514Z,2.00
2019-03-01T22:47:06.382Z,2.97
2019-03-01T22:49:37.114Z,2.43
2019-03-01T22:52:07.571Z,5.93
2019-03-01T22:54:38.078Z,4.30
2019-03-01T22:57:08.586Z,2.10
2019-03-01T22:59:39.051Z,2.80
2019-03-01T23:02:13.803Z,4.30
2019-03-01T23:04:44.336Z,2.60
2019-03-01T23:07:14.788Z,6.73
2019-03-01T23:09:46.537Z,4.50
2019-03-01T23:12:17.429Z,5.07
2019-03-01T23:14:47.889Z,4.17
2019-03-01T23:17:18.440Z,8.73
2019-03-01T23:19:51.689Z,5.93
2019-03-01T23:22:21.058Z,5.67
2019-03-01T23:24:51.486Z,3.80
2019-03-01T23:27:21.940Z,5.30
2019-03-01T23:29:54.352Z,4.30
2019-03-01T23:32:24.666Z,5.07
2019-03-01T23:34:55.127Z,5.47
2019-03-01T23:37:25.711Z,5.83
2019-03-01T23:39:57.098Z,6.30
2019-03-01T23:42:28.344Z,4.83
2019-03-01T23:44:58.914Z,4.40
2019-03-01T23:47:29.489Z,6.20
2019-03-01T23:50:00.589Z,4.97
2019-03-01T23:52:31.144Z,8.60
2019-03-01T23:55:01.641Z,6.90
2019-03-01T23:57:32.110Z,8.03
